createdAt,value
2023-05-12T00:01:19.857Z,97895.59
2023-05-12T00:04:23.907Z,97896.69
2023-05-12T00:07:26.670Z,97897.50
2023-05-12T00:10:29.437Z,97896.47
2023-05-12T00:13:32.159Z,97896.47
2023-05-12T00:16:34.999Z,97884.94
2023-05-12T00:19:41.633Z,97892.00
2023-05-12T00:22:44.245Z,97874.53
2023-05-12T00:25:46.916Z,97883.13
2023-05-12T00:28:49.537Z,97882.63
2023-05-12T00:31:52.278Z,97873.75
2023-05-12T00:34:57.342Z,97871.75
2023-05-12T00:37:59.940Z,97880.13
2023-05-12T00:41:02.736Z,97871.66
2023-05-12T00:44:05.614Z,97877.59
2023-05-12T00:47:08.325Z,97878.41
2023-05-12T00:50:12.861Z,97874.63
2023-05-12T00:53:15.580Z,97881.09
2023-05-12T00:56:21.491Z,97884.78
2023-05-12T00:59:27.732Z,97877.53
2023-05-12T01:02:34.218Z,97882.91
2023-05-12T01:05:51.590Z,97876.63
2023-05-12T01:08:59.201Z,97879.91
2023-05-12T01:12:05.401Z,97882.91
2023-05-12T01:15:13.497Z,97880.72
2023-05-12T01:18:24.171Z,97883.13
2023-05-12T01:21:32.729Z,97879.63
2023-05-12T01:24:46.470Z,97880.13
2023-05-12T01:27:56.200Z,97874.19
2023-05-12T01:31:05.391Z,97870.69
2023-05-12T01:34:11.429Z,97876.06
2023-05-12T01:37:18.236Z,97875.25
2023-05-12T01:40:24.221Z,97869.56
2023-05-12T01:43:34.198Z,97872.06
2023-05-12T01:46:40.161Z,97875.34
2023-05-12T01:49:50.420Z,97876.13
2023-05-12T01:52:56.028Z,97876.94
2023-05-12T01:56:07.239Z,97883.69
2023-05-12T01:59:19.971Z,97884.28
2023-05-12T02:02:27.828Z,97879.78
2023-05-12T02:05:44.603Z,97874.63
2023-05-12T02:08:53.131Z,97875.19
2023-05-12T02:12:02.638Z,97880.06
2023-05-12T02:15:20.985Z,97877.59
2023-05-12T02:18:27.723Z,97876.81
2023-05-12T02:21:34.080Z,97876.31
2023-05-12T02:24:41.058Z,97869.03
2023-05-12T02:27:50.350Z,97870.34
2023-05-12T02:30:58.796Z,97873.53
2023-05-12T02:34:11.362Z,97872.41
2023-05-12T02:37:20.350Z,97878.03
2023-05-12T02:40:31.096Z,97877.81
2023-05-12T02:43:36.408Z,97875.41
2023-05-12T02:46:48.107Z,97873.53
2023-05-12T02:49:57.391Z,97866.25
2023-05-12T02:53:04.955Z,97869.53
2023-05-12T02:56:10.425Z,97867.75
2023-05-12T02:59:25.471Z,97873.69
2023-05-12T03:02:36.831Z,97860.03
2023-05-12T03:05:42.355Z,97865.72
2023-05-12T03:08:47.415Z,97868.91
2023-05-12T03:11:58.280Z,97871.59
2023-05-12T03:15:13.397Z,97870.28
2023-05-12T03:18:20.781Z,97872.66
2023-05-12T03:21:27.382Z,97876.97
2023-05-12T03:24:41.881Z,97880.69
2023-05-12T03:27:52.822Z,97875.50
2023-05-12T03:30:59.973Z,97876.81
2023-05-12T03:34:10.303Z,97881.59
2023-05-12T03:37:18.290Z,97878.91
2023-05-12T03:40:23.886Z,97878.09
2023-05-12T03:43:31.639Z,97872.22
2023-05-12T03:46:43.390Z,97873.53
2023-05-12T03:49:55.738Z,97878.09
2023-05-12T03:53:00.939Z,97868.44
2023-05-12T03:56:09.089Z,97874.91
2023-05-12T03:59:19.114Z,97866.56
2023-05-12T04:02:25.229Z,97862.56
2023-05-12T04:05:36.048Z,97863.63
2023-05-12T04:08:52.037Z,97867.34
2023-05-12T04:12:03.809Z,97861.97
2023-05-12T04:15:10.231Z,97863.88
2023-05-12T04:18:15.376Z,97859.28
2023-05-12T04:21:21.435Z,97862.34
2023-05-12T04:24:43.743Z,97873.69
2023-05-12T04:27:50.024Z,97874.78
2023-05-12T04:30:55.945Z,97876.31
2023-05-12T04:34:02.297Z,97885.09
2023-05-12T04:37:11.291Z,97880.22
2023-05-12T04:40:16.124Z,97882.91
2023-05-12T04:46:32.068Z,97885.88
2023-05-12T04:49:37.679Z,97879.63
2023-05-12T04:52:45.195Z,97884.69
2023-05-12T04:55:52.858Z,97885.00
2023-05-12T04:59:01.652Z,97890.09
2023-05-12T05:02:05.855Z,97892.72
2023-05-12T05:05:10.611Z,97895.91
2023-05-12T05:08:23.276Z,97896.91
2023-05-12T05:11:29.848Z,97898.19
2023-05-12T05:14:36.512Z,97901.69
2023-05-12T05:17:44.471Z,97895.81
2023-05-12T05:20:57.933Z,97897.03
2023-05-12T05:24:10.829Z,97900.81
2023-05-12T05:27:18.968Z,97900.81
2023-05-12T05:30:24.549Z,97908.31
2023-05-12T05:33:31.738Z,97909.59
2023-05-12T05:36:38.112Z,97904.94
2023-05-12T05:39:45.687Z,97910.00
2023-05-12T05:42:50.473Z,97916.00
2023-05-12T05:45:53.310Z,97915.50
2023-05-12T05:48:56.213Z,97911.13
2023-05-12T05:51:59.054Z,97913.44
2023-05-12T05:55:03.331Z,97921.25
2023-05-12T05:58:06.204Z,97915.25
2023-05-12T06:01:08.971Z,97917.16
2023-05-12T06:04:11.899Z,97927.03
2023-05-12T06:07:14.783Z,97913.28
2023-05-12T06:10:19.678Z,97919.66
2023-05-12T06:13:24.815Z,97915.41
2023-05-12T06:16:27.656Z,97932.63
2023-05-12T06:19:30.873Z,97924.34
2023-05-12T06:22:34.842Z,97928.16
2023-05-12T06:25:39.377Z,97932.72
2023-05-12T06:28:42.243Z,97930.25
2023-05-12T06:31:47.324Z,97936.50
2023-05-12T06:34:50.394Z,97933.44
2023-05-12T06:37:53.611Z,97934.94
2023-05-12T06:40:57.728Z,97930.28
2023-05-12T06:44:02.451Z,97934.03
2023-05-12T06:47:06.955Z,97930.78
2023-05-12T06:50:11.258Z,97937.75
2023-05-12T06:53:14.211Z,97938.19
2023-05-12T06:56:18.420Z,97938.19
2023-05-12T06:59:21.461Z,97935.50
2023-05-12T07:02:24.200Z,97942.16
2023-05-12T07:05:27.012Z,97939.09
2023-05-12T07:08:29.823Z,97940.69
2023-05-12T07:11:34.173Z,97944.09
2023-05-12T07:14:37.338Z,97939.59
2023-05-12T07:17:40.242Z,97941.91
2023-05-12T07:20:43.149Z,97941.09
2023-05-12T07:23:46.328Z,97942.41
2023-05-12T07:26:50.582Z,97939.72
2023-05-12T07:29:53.261Z,97942.69
2023-05-12T07:32:56.259Z,97938.38
2023-05-12T07:35:59.200Z,97940.38
2023-05-12T07:39:01.863Z,97941.56
2023-05-12T07:42:07.020Z,97932.38
2023-05-12T07:45:10.207Z,97928.47
2023-05-12T07:48:13.484Z,97932.88
2023-05-12T07:51:16.238Z,97934.84
2023-05-12T07:54:18.940Z,97928.78
2023-05-12T07:57:23.085Z,97930.09
2023-05-12T08:00:26.052Z,97929.56
2023-05-12T08:03:29.027Z,97936.72
2023-05-12T08:06:31.857Z,97933.44
2023-05-12T08:09:34.602Z,97931.22
2023-05-12T08:12:38.806Z,97932.56
2023-05-12T08:15:41.573Z,97936.44
2023-05-12T08:18:44.581Z,97932.38
2023-05-12T08:21:47.336Z,97929.59
2023-05-12T08:24:50.919Z,97920.75
2023-05-12T08:27:55.402Z,97930.25
2023-05-12T08:30:58.464Z,97923.00
2023-05-12T08:34:09.699Z,97921.09
2023-05-12T08:37:13.647Z,97916.34
2023-05-12T08:40:21.988Z,97917.16
2023-05-12T08:43:29.589Z,97924.31
2023-05-12T08:46:33.188Z,97929.81
2023-05-12T08:49:38.758Z,97935.78
2023-05-12T08:52:41.884Z,97930.78
2023-05-12T08:55:58.387Z,97938.13
2023-05-12T08:59:11.346Z,97946.19
2023-05-12T09:02:15.469Z,97944.72
2023-05-12T09:05:18.697Z,97945.69
2023-05-12T09:08:21.960Z,97943.38
2023-05-12T09:11:24.973Z,97946.25
2023-05-12T09:14:32.104Z,97945.53
2023-05-12T09:17:35.240Z,97944.09
2023-05-12T09:20:38.068Z,97933.66
2023-05-12T09:23:40.859Z,97940.50
2023-05-12T09:26:48.241Z,97941.78
2023-05-12T09:29:58.980Z,97943.25
2023-05-12T09:33:08.970Z,97940.25
2023-05-12T09:36:12.511Z,97938.84
2023-05-12T09:39:15.211Z,97938.72
2023-05-12T09:42:18.238Z,97930.31
2023-05-12T09:45:22.489Z,97936.19
2023-05-12T09:48:27.392Z,97931.88
2023-05-12T09:51:31.071Z,97936.03
2023-05-12T09:54:34.674Z,97931.59
2023-05-12T09:57:40.891Z,97930.84
2023-05-12T10:01:12.834Z,97935.63
2023-05-12T10:04:09.806Z,97927.09
2023-05-12T10:07:14.542Z,97920.72
2023-05-12T10:10:20.663Z,97928.69
2023-05-12T10:13:28.124Z,97932.66
2023-05-12T10:16:33.446Z,97935.88
2023-05-12T10:19:36.884Z,97936.97
2023-05-12T10:22:41.140Z,97933.41
2023-05-12T10:25:45.185Z,97932.25
2023-05-12T10:28:48.848Z,97933.81
2023-05-12T10:31:53.067Z,97932.00
2023-05-12T10:34:56.524Z,97938.00
2023-05-12T10:38:03.608Z,97931.31
2023-05-12T10:41:07.360Z,97934.84
2023-05-12T10:44:10.780Z,97931.31
2023-05-12T10:47:16.101Z,97933.28
2023-05-12T10:50:28.163Z,97928.03
2023-05-12T10:53:47.822Z,97935.22
2023-05-12T10:56:52.794Z,97937.28
2023-05-12T10:59:59.400Z,97937.50
2023-05-12T11:03:13.334Z,97929.66
2023-05-12T11:06:21.197Z,97941.16
2023-05-12T11:09:24.954Z,97946.41
2023-05-12T11:12:30.261Z,97948.66
2023-05-12T11:15:33.124Z,97950.41
2023-05-12T11:18:37.268Z,97952.09
2023-05-12T11:21:40.347Z,97951.41
2023-05-12T11:24:43.436Z,97954.91
2023-05-12T11:27:50.700Z,97954.03
2023-05-12T11:30:55.311Z,97954.53
2023-05-12T11:34:12.480Z,97957.50
2023-05-12T11:37:16.149Z,97955.28
2023-05-12T11:40:20.645Z,97960.34
2023-05-12T11:43:23.428Z,97960.50
2023-05-12T11:46:27.309Z,97961.59
2023-05-12T11:49:32.506Z,97957.47
2023-05-12T11:52:35.348Z,97952.47
2023-05-12T11:55:38.179Z,97955.66
2023-05-12T11:58:40.945Z,97961.09
2023-05-12T12:01:47.057Z,97960.66
2023-05-12T12:04:51.162Z,97954.75
2023-05-12T12:07:53.854Z,97961.94
2023-05-12T12:10:56.710Z,97958.44
2023-05-12T12:14:00.443Z,97964.94
2023-05-12T12:17:03.759Z,97968.00
2023-05-12T12:20:09.894Z,97965.28
2023-05-12T12:23:12.861Z,97969.72
2023-05-12T12:26:17.038Z,97971.81
2023-05-12T12:29:19.857Z,97966.88
2023-05-12T12:32:22.618Z,97971.63
2023-05-12T12:35:26.985Z,97972.91
2023-05-12T12:38:29.733Z,97976.94
2023-05-12T12:41:32.457Z,97966.47
2023-05-12T12:44:35.364Z,97982.75
2023-05-12T12:47:38.865Z,97970.50
2023-05-12T12:50:43.045Z,97971.47
2023-05-12T12:53:46.195Z,97964.19
2023-05-12T12:56:48.966Z,97973.28
2023-05-12T12:59:52.018Z,97970.88
2023-05-12T13:02:54.873Z,97977.88
2023-05-12T13:05:59.050Z,97971.69
2023-05-12T13:09:02.077Z,97975.13
2023-05-12T13:12:05.560Z,97984.16
2023-05-12T13:15:10.438Z,97986.75
2023-05-12T13:18:13.575Z,97984.59
2023-05-12T13:21:18.682Z,97988.50
2023-05-12T13:24:21.417Z,97986.06
2023-05-12T13:27:24.086Z,97987.09
2023-05-12T13:30:26.989Z,97986.59
2023-05-12T13:33:29.665Z,97988.19
2023-05-12T13:36:34.718Z,97986.41
2023-05-12T13:39:37.577Z,97994.03
2023-05-12T13:42:40.323Z,97994.69
2023-05-12T13:45:43.179Z,97992.31
2023-05-12T13:48:46.936Z,97988.19
2023-05-12T13:51:50.983Z,97983.47
2023-05-12T13:54:53.681Z,97990.63
2023-05-12T13:57:56.376Z,97981.13
2023-05-12T14:00:59.266Z,97983.09
2023-05-12T14:04:01.923Z,97982.88
2023-05-12T14:07:08.570Z,97986.88
2023-05-12T14:10:12.434Z,97978.31
2023-05-12T14:13:15.089Z,97980.09
2023-05-12T14:16:17.815Z,97980.69
2023-05-12T14:19:20.517Z,97978.31
2023-05-12T14:22:26.452Z,97988.44
2023-05-12T14:25:30.748Z,97988.44
2023-05-12T14:28:33.556Z,97988.31
2023-05-12T14:31:36.465Z,97989.00
2023-05-12T14:34:39.181Z,97989.28
2023-05-12T14:37:43.498Z,97993.72
2023-05-12T14:40:49.199Z,97991.81
2023-05-12T14:43:51.947Z,98001.03
2023-05-12T14:46:54.678Z,97991.69
2023-05-12T14:49:57.328Z,97993.63
2023-05-12T14:53:01.444Z,97993.38
2023-05-12T14:56:04.296Z,97985.44
2023-05-12T14:59:07.015Z,97989.59
2023-05-12T15:02:09.924Z,97991.69
2023-05-12T15:05:14.506Z,97988.22
2023-05-12T15:08:18.688Z,97991.09
2023-05-12T15:11:21.593Z,97989.03
2023-05-12T15:17:32.348Z,97983.91
2023-05-12T15:20:35.466Z,98002.56
2023-05-12T15:23:41.454Z,97997.97
2023-05-12T15:26:44.075Z,97993.03
2023-05-12T15:29:46.784Z,97996.41
2023-05-12T15:32:49.623Z,98004.63
2023-05-12T15:35:52.431Z,97999.31
2023-05-12T15:38:56.638Z,98001.63
2023-05-12T15:42:00.122Z,98000.00
2023-05-12T15:45:03.017Z,97997.13
2023-05-12T15:48:08.694Z,98011.63
2023-05-12T15:51:12.223Z,98001.94
2023-05-12T15:54:16.408Z,98013.34
2023-05-12T15:57:19.082Z,98012.13
2023-05-12T16:00:22.529Z,98006.88
2023-05-12T16:03:25.410Z,98009.41
2023-05-12T16:06:28.469Z,98012.25
2023-05-12T16:09:32.581Z,98014.00
2023-05-12T16:12:35.362Z,98014.00
2023-05-12T16:15:38.106Z,98005.72
2023-05-12T16:18:41.201Z,98015.22
2023-05-12T16:21:44.488Z,98015.81
2023-05-12T16:24:49.256Z,98021.84
2023-05-12T16:27:52.003Z,98015.97
2023-05-12T16:30:54.730Z,98017.44
2023-05-12T16:33:57.439Z,98007.44
2023-05-12T16:37:00.141Z,98008.19
2023-05-12T16:40:04.872Z,98007.84
2023-05-12T16:43:07.644Z,98009.56
2023-05-12T16:46:10.596Z,98001.66
2023-05-12T16:49:13.394Z,98006.56
2023-05-12T16:52:16.157Z,98005.97
2023-05-12T16:55:20.392Z,98012.19
2023-05-12T16:58:23.303Z,98008.69
2023-05-12T17:01:26.449Z,98010.59
2023-05-12T17:04:29.271Z,98015.81
2023-05-12T17:07:32.271Z,98012.81
2023-05-12T17:10:36.392Z,98018.03
2023-05-12T17:13:39.209Z,98020.06
2023-05-12T17:16:41.952Z,98025.81
2023-05-12T17:19:44.787Z,98033.78
2023-05-12T17:22:50.397Z,98030.44
2023-05-12T17:25:54.825Z,98031.41
2023-05-12T17:28:57.578Z,98035.28
2023-05-12T17:32:02.052Z,98039.88
2023-05-12T17:35:05.065Z,98038.41
2023-05-12T17:38:07.817Z,98044.13
2023-05-12T17:41:12.164Z,98055.06
2023-05-12T17:44:14.830Z,98046.47
2023-05-12T17:47:17.712Z,98054.06
2023-05-12T17:50:20.693Z,98048.16
2023-05-12T17:53:23.668Z,98055.78
2023-05-12T17:56:28.692Z,98059.50
2023-05-12T17:59:31.344Z,98064.41
2023-05-12T18:02:34.202Z,98063.81
2023-05-12T18:05:37.131Z,98066.19
2023-05-12T18:08:40.095Z,98066.81
2023-05-12T18:11:44.696Z,98070.72
2023-05-12T18:14:47.445Z,98069.53
2023-05-12T18:17:50.195Z,98069.34
2023-05-12T18:20:52.949Z,98067.84
2023-05-12T18:23:55.609Z,98070.34
2023-05-12T18:26:59.673Z,98073.06
2023-05-12T18:30:02.418Z,98075.34
2023-05-12T18:33:05.722Z,98069.44
2023-05-12T18:36:08.680Z,98072.13
2023-05-12T18:39:13.553Z,98071.06
2023-05-12T18:42:17.803Z,98070.56
2023-05-12T18:45:20.878Z,98067.06
2023-05-12T18:48:23.932Z,98071.63
2023-05-12T18:51:27.449Z,98079.53
2023-05-12T18:54:30.289Z,98083.63
2023-05-12T18:57:34.459Z,98087.09
2023-05-12T19:00:37.455Z,98092.19
2023-05-12T19:03:40.295Z,98102.09
2023-05-12T19:06:43.054Z,98098.00
2023-05-12T19:09:45.775Z,98107.97
2023-05-12T19:12:50.933Z,98105.28
2023-05-12T19:15:53.772Z,98105.41
2023-05-12T19:18:56.698Z,98113.69
2023-05-12T19:21:59.444Z,98113.69
2023-05-12T19:25:03.112Z,98115.25
2023-05-12T19:28:07.460Z,98119.38
2023-05-12T19:31:10.982Z,98115.38
2023-05-12T19:34:13.666Z,98128.16
2023-05-12T19:37:16.423Z,98129.22
2023-05-12T19:40:19.313Z,98125.25
2023-05-12T19:43:23.492Z,98131.69
2023-05-12T19:46:26.298Z,98131.91
2023-05-12T19:49:28.967Z,98136.28
2023-05-12T19:52:31.729Z,98135.31
2023-05-12T19:55:34.376Z,98140.50
2023-05-12T19:58:38.504Z,98147.22
2023-05-12T20:01:41.960Z,98138.88
2023-05-12T20:04:45.504Z,98142.75
2023-05-12T20:07:48.535Z,98138.75
2023-05-12T20:10:52.114Z,98137.88
2023-05-12T20:13:56.224Z,98139.19
2023-05-12T20:16:59.149Z,98148.28
2023-05-12T20:20:04.147Z,98146.50
2023-05-12T20:23:06.850Z,98152.47
2023-05-12T20:26:10.010Z,98150.47
2023-05-12T20:29:20.678Z,98155.06
2023-05-12T20:32:23.659Z,98154.16
2023-05-12T20:35:26.927Z,98156.63
2023-05-12T20:38:29.764Z,98169.03
2023-05-12T20:41:32.360Z,98159.84
2023-05-12T20:44:36.614Z,98163.03
2023-05-12T20:47:39.511Z,98173.03
2023-05-12T20:50:43.176Z,98173.31
2023-05-12T20:53:46.005Z,98176.63
2023-05-12T20:56:48.990Z,98179.63
2023-05-12T20:59:54.517Z,98180.69
2023-05-12T21:02:58.059Z,98182.88
2023-05-12T21:06:01.066Z,98184.78
2023-05-12T21:09:04.922Z,98188.56
2023-05-12T21:12:08.164Z,98191.34
2023-05-12T21:15:13.058Z,98191.94
2023-05-12T21:18:15.903Z,98192.53
2023-05-12T21:21:18.643Z,98196.31
2023-05-12T21:24:21.268Z,98195.44
2023-05-12T21:27:23.980Z,98191.50
2023-05-12T21:30:28.099Z,98191.31
2023-05-12T21:33:30.925Z,98201.91
2023-05-12T21:36:34.200Z,98193.34
2023-05-12T21:39:37.067Z,98188.66
2023-05-12T21:42:39.791Z,98191.78
2023-05-12T21:45:43.881Z,98189.63
2023-05-12T21:48:47.041Z,98194.06
2023-05-12T21:51:50.016Z,98196.97
2023-05-12T21:54:52.796Z,98191.38
2023-05-12T21:57:55.501Z,98192.97
2023-05-12T22:01:00.151Z,98189.69
2023-05-12T22:04:03.250Z,98194.56
2023-05-12T22:07:06.433Z,98196.25
2023-05-12T22:10:10.159Z,98194.06
2023-05-12T22:13:12.874Z,98193.03
2023-05-12T22:16:18.572Z,98208.59
2023-05-12T22:19:22.857Z,98201.63
2023-05-12T22:22:26.466Z,98202.34
2023-05-12T22:25:29.334Z,98204.53
2023-05-12T22:28:32.281Z,98199.44
2023-05-12T22:31:36.494Z,98202.66
2023-05-12T22:34:39.404Z,98203.69
2023-05-12T22:37:42.271Z,98206.38
2023-05-12T22:40:45.180Z,98212.53
2023-05-12T22:43:48.020Z,98206.38
2023-05-12T22:46:52.206Z,98208.47
2023-05-12T22:49:55.013Z,98212.28
2023-05-12T22:52:58.329Z,98204.47
2023-05-12T22:56:00.992Z,98207.97
2023-05-12T22:59:03.913Z,98201.00
2023-05-12T23:02:08.034Z,98201.50
2023-05-12T23:05:11.113Z,98198.50
2023-05-12T23:08:13.766Z,98189.19
2023-05-12T23:11:16.568Z,98190.56
2023-05-12T23:14:19.353Z,98194.94
2023-05-12T23:17:23.458Z,98193.97
2023-05-12T23:20:26.169Z,98188.94
2023-05-12T23:23:28.899Z,98189.59
2023-05-12T23:26:31.784Z,98190.19
2023-05-12T23:29:34.747Z,98183.63
2023-05-12T23:32:39.030Z,98186.97
2023-05-12T23:35:41.799Z,98177.34
2023-05-12T23:38:44.521Z,98179.88
2023-05-12T23:41:47.237Z,98178.25
2023-05-12T23:44:50.008Z,98173.47
2023-05-12T23:47:54.210Z,98180.44
2023-05-12T23:50:56.894Z,98173.72
2023-05-12T23:53:59.603Z,98170.47
2023-05-12T23:57:03.173Z,98178.78
